createdAt,value
2022-12-05T00:00:02.269Z,7.63
2022-12-05T00:02:29.903Z,8.63
2022-12-05T00:04:57.368Z,7.87
2022-12-05T00:07:25.702Z,8.27
2022-12-05T00:09:55.080Z,8.07
2022-12-05T00:12:22.413Z,7.87
2022-12-05T00:14:50.718Z,8.23
2022-12-05T00:17:18.627Z,7.33
2022-12-05T00:19:46.160Z,8.30
2022-12-05T00:22:13.686Z,8.03
2022-12-05T00:24:41.250Z,10.68
2022-12-05T00:27:08.774Z,8.53
2022-12-05T00:29:36.299Z,7.57
2022-12-05T00:32:04.270Z,8.60
2022-12-05T00:34:31.792Z,8.33
2022-12-05T00:36:59.315Z,8.20
2022-12-05T00:39:26.918Z,8.53
2022-12-05T00:41:54.453Z,9.03
2022-12-05T00:44:22.746Z,9.30
2022-12-05T00:46:50.615Z,9.23
2022-12-05T00:49:18.142Z,9.37
2022-12-05T00:51:45.665Z,9.47
2022-12-05T00:54:13.257Z,8.77
2022-12-05T00:56:40.775Z,8.73
2022-12-05T00:59:08.299Z,12.27
2022-12-05T01:01:36.258Z,10.37
2022-12-05T01:04:03.763Z,9.70
2022-12-05T01:06:31.249Z,8.80
2022-12-05T01:08:59.373Z,8.73
2022-12-05T01:11:26.898Z,11.07
2022-12-05T01:13:55.193Z,8.33
2022-12-05T01:16:25.757Z,8.67
2022-12-05T01:18:53.214Z,8.50
2022-12-05T01:21:20.771Z,10.38
2022-12-05T01:23:48.333Z,8.50
2022-12-05T01:26:15.858Z,10.38
2022-12-05T01:28:43.481Z,9.43
2022-12-05T01:31:18.341Z,7.90
2022-12-05T01:33:45.778Z,8.37
2022-12-05T01:36:14.081Z,7.77
2022-12-05T01:38:41.647Z,7.30
2022-12-05T01:41:09.170Z,7.83
2022-12-05T01:43:36.703Z,10.30
2022-12-05T01:46:04.351Z,8.47
2022-12-05T01:48:31.801Z,8.27
2022-12-05T01:50:59.346Z,10.30
2022-12-05T01:53:37.730Z,8.37
2022-12-05T01:56:06.013Z,8.03
2022-12-05T01:58:34.361Z,7.67
2022-12-05T02:01:02.353Z,8.00
2022-12-05T02:03:29.830Z,8.60
2022-12-05T02:05:57.354Z,10.70
2022-12-05T02:08:25.254Z,9.13
2022-12-05T02:10:52.778Z,8.60
2022-12-05T02:13:27.001Z,8.03
2022-12-05T02:16:19.350Z,7.83
2022-12-05T02:19:08.118Z,7.80
2022-12-05T02:21:48.620Z,8.37
2022-12-05T02:24:16.156Z,7.20
2022-12-05T02:26:55.574Z,7.17
2022-12-05T02:29:44.396Z,8.17
2022-12-05T02:32:14.792Z,7.93
2022-12-05T02:35:06.483Z,7.90
2022-12-05T02:37:34.050Z,7.13
2022-12-05T02:40:13.467Z,7.87
2022-12-05T02:42:42.804Z,7.33
2022-12-05T02:45:10.328Z,8.30
2022-12-05T02:47:38.620Z,7.60
2022-12-05T02:50:06.628Z,7.43
2022-12-05T02:52:34.162Z,7.33
2022-12-05T02:55:01.688Z,8.00
2022-12-05T02:57:30.030Z,8.00
2022-12-05T02:59:57.815Z,7.43
2022-12-05T03:02:25.090Z,6.80
2022-12-05T03:04:54.348Z,7.23
2022-12-05T03:07:21.871Z,7.40
2022-12-05T03:09:51.986Z,7.27
2022-12-05T03:12:31.612Z,6.73
2022-12-05T03:15:06.051Z,7.57
2022-12-05T03:17:33.585Z,7.87
2022-12-05T03:20:07.982Z,6.73
2022-12-05T03:22:47.234Z,8.17
2022-12-05T03:25:15.565Z,7.17
2022-12-05T03:28:13.604Z,7.97
2022-12-05T03:30:42.076Z,8.73
2022-12-05T03:33:09.587Z,7.77
2022-12-05T03:35:39.821Z,8.40
2022-12-05T03:38:28.586Z,8.87
2022-12-05T03:41:14.158Z,11.02
2022-12-05T03:43:47.531Z,10.30
2022-12-05T03:46:15.117Z,11.85
2022-12-05T03:48:57.572Z,9.70
2022-12-05T03:51:25.117Z,9.60
2022-12-05T03:53:52.651Z,11.33
2022-12-05T03:56:24.549Z,8.80
2022-12-05T03:58:54.800Z,8.20
2022-12-05T04:01:22.405Z,8.27
2022-12-05T04:03:50.731Z,8.87
2022-12-05T04:06:24.016Z,12.70
2022-12-05T04:08:51.539Z,8.57
2022-12-05T04:11:19.930Z,16.73
2022-12-05T04:13:56.865Z,13.20
2022-12-05T04:16:48.638Z,12.90
2022-12-05T04:19:20.082Z,12.17
2022-12-05T04:21:48.368Z,10.70
2022-12-05T04:24:49.744Z,8.97
2022-12-05T04:27:26.189Z,8.03
2022-12-05T04:30:09.192Z,9.67
2022-12-05T04:32:55.898Z,9.10
2022-12-05T04:35:26.817Z,8.97
2022-12-05T04:37:54.354Z,8.87
2022-12-05T04:40:24.566Z,9.00
2022-12-05T04:42:52.130Z,11.68
2022-12-05T04:45:19.664Z,8.70
2022-12-05T04:47:47.189Z,8.50
2022-12-05T04:50:16.409Z,7.97
2022-12-05T04:52:43.933Z,8.03
2022-12-05T04:55:11.465Z,7.60
2022-12-05T04:58:07.139Z,7.20
2022-12-05T05:00:34.660Z,6.93
2022-12-05T05:03:04.923Z,6.13
2022-12-05T05:05:33.613Z,9.38
2022-12-05T05:08:01.204Z,9.90
2022-12-05T05:10:37.631Z,8.30
2022-12-05T05:13:05.115Z,8.10
2022-12-05T05:15:32.639Z,8.40
2022-12-05T05:18:00.926Z,8.93
2022-12-05T05:20:28.487Z,8.07
2022-12-05T05:22:56.034Z,8.03
2022-12-05T05:25:24.329Z,9.10
2022-12-05T05:27:53.122Z,9.07
2022-12-05T05:30:21.414Z,8.50
2022-12-05T05:32:48.946Z,8.67
2022-12-05T05:35:16.833Z,8.17
2022-12-05T05:37:44.361Z,7.93
2022-12-05T05:40:11.885Z,7.33
2022-12-05T05:42:42.355Z,8.67
2022-12-05T05:45:10.053Z,10.85
2022-12-05T05:47:37.578Z,8.80
2022-12-05T05:50:06.097Z,7.83
2022-12-05T05:52:33.622Z,7.10
2022-12-05T05:55:01.148Z,7.10
2022-12-05T05:57:29.518Z,7.50
2022-12-05T05:59:57.244Z,7.53
2022-12-05T06:02:24.635Z,7.87
2022-12-05T06:04:52.141Z,7.63
2022-12-05T06:07:19.663Z,7.20
2022-12-05T06:09:47.949Z,8.63
2022-12-05T06:12:16.294Z,7.03
2022-12-05T06:14:43.817Z,7.10
2022-12-05T06:17:11.363Z,9.20
2022-12-05T06:19:38.916Z,8.20
2022-12-05T06:22:06.442Z,7.90
2022-12-05T06:24:33.980Z,6.67
2022-12-05T06:27:01.557Z,7.57
2022-12-05T06:29:33.482Z,7.80
2022-12-05T06:31:56.678Z,7.87
2022-12-05T06:34:24.179Z,7.27
2022-12-05T06:36:51.717Z,7.63
2022-12-05T06:39:20.020Z,6.80
2022-12-05T06:41:47.755Z,7.77
2022-12-05T06:44:15.243Z,8.63
2022-12-05T06:46:42.768Z,8.87
2022-12-05T06:49:11.120Z,8.60
2022-12-05T06:51:38.654Z,9.40
2022-12-05T06:54:06.188Z,9.80
2022-12-05T06:56:33.772Z,9.47
2022-12-05T06:59:01.301Z,8.50
2022-12-05T07:01:41.695Z,8.73
2022-12-05T07:04:08.692Z,7.30
2022-12-05T07:06:36.992Z,7.17
2022-12-05T07:09:04.584Z,8.63
2022-12-05T07:11:32.097Z,8.30
2022-12-05T07:14:00.398Z,8.37
2022-12-05T07:16:28.332Z,8.23
2022-12-05T07:18:55.793Z,8.23
2022-12-05T07:21:23.327Z,8.00
2022-12-05T07:23:50.891Z,8.23
2022-12-05T07:26:19.203Z,8.03
2022-12-05T07:28:46.745Z,7.40
2022-12-05T07:31:18.077Z,6.57
2022-12-05T07:33:45.608Z,7.23
2022-12-05T07:36:13.144Z,9.45
2022-12-05T07:38:40.717Z,11.12
2022-12-05T07:41:12.988Z,8.43
2022-12-05T07:43:35.786Z,10.57
2022-12-05T07:46:05.969Z,8.73
2022-12-05T07:48:33.452Z,10.23
2022-12-05T07:51:01.765Z,10.37
2022-12-05T07:53:29.342Z,11.03
2022-12-05T07:55:56.892Z,10.77
2022-12-05T07:58:24.399Z,9.30
2022-12-05T08:00:53.147Z,8.87
2022-12-05T08:03:20.667Z,8.70
2022-12-05T08:05:48.196Z,9.93
2022-12-05T08:08:15.856Z,9.87
2022-12-05T08:10:43.288Z,8.40
2022-12-05T08:13:10.818Z,8.73
2022-12-05T08:15:38.383Z,11.68
2022-12-05T08:18:05.908Z,9.03
2022-12-05T08:20:34.211Z,9.00
2022-12-05T08:23:01.785Z,9.13
2022-12-05T08:25:29.319Z,8.77
2022-12-05T08:27:56.856Z,8.93
2022-12-05T08:30:25.256Z,8.33
2022-12-05T08:32:52.712Z,9.00
2022-12-05T08:35:20.257Z,8.10
2022-12-05T08:37:48.620Z,8.50
2022-12-05T08:40:16.172Z,8.70
2022-12-05T08:42:43.716Z,7.23
2022-12-05T08:45:11.300Z,7.17
2022-12-05T08:47:39.593Z,6.80
2022-12-05T08:50:08.175Z,7.30
2022-12-05T08:52:36.527Z,9.13
2022-12-05T08:55:04.069Z,8.50
2022-12-05T08:57:31.600Z,10.68
2022-12-05T08:59:59.174Z,8.87
2022-12-05T09:02:26.760Z,7.20
2022-12-05T09:04:54.389Z,7.40
2022-12-05T09:07:23.567Z,7.47
2022-12-05T09:09:51.101Z,6.67
2022-12-05T09:12:19.403Z,6.87
2022-12-05T09:14:47.008Z,7.13
2022-12-05T09:17:14.542Z,6.67
2022-12-05T09:19:42.086Z,7.27
2022-12-05T09:22:10.251Z,7.53
2022-12-05T09:24:37.779Z,6.67
2022-12-05T09:27:06.089Z,6.97
2022-12-05T09:29:34.539Z,6.40
2022-12-05T09:32:02.868Z,6.90
2022-12-05T09:34:30.406Z,6.27
2022-12-05T09:37:10.578Z,7.33
2022-12-05T09:39:25.503Z,6.10
2022-12-05T09:42:05.430Z,6.47
2022-12-05T09:45:00.703Z,6.90
2022-12-05T09:47:46.360Z,6.33
2022-12-05T09:50:23.066Z,7.43
2022-12-05T09:52:56.101Z,8.90
2022-12-05T09:55:23.642Z,8.10
2022-12-05T09:57:53.619Z,7.00
2022-12-05T10:00:21.211Z,8.40
2022-12-05T10:02:51.362Z,6.97
2022-12-05T10:05:24.679Z,7.07
2022-12-05T10:07:59.212Z,6.80
2022-12-05T10:10:29.867Z,6.27
2022-12-05T10:13:00.055Z,7.17
2022-12-05T10:15:34.029Z,6.57
2022-12-05T10:18:04.304Z,7.00
2022-12-05T10:20:41.058Z,6.90
2022-12-05T10:23:34.744Z,6.23
2022-12-05T10:25:45.825Z,6.93
2022-12-05T10:28:15.783Z,7.77
2022-12-05T10:30:44.137Z,7.40
2022-12-05T10:33:11.698Z,7.30
2022-12-05T10:35:39.217Z,7.17
2022-12-05T10:38:07.494Z,7.27
2022-12-05T10:40:35.088Z,7.40
2022-12-05T10:43:02.622Z,7.10
2022-12-05T10:45:30.148Z,8.95
2022-12-05T10:47:57.723Z,7.63
2022-12-05T10:50:34.504Z,7.10
2022-12-05T10:53:02.676Z,6.77
2022-12-05T10:55:54.723Z,6.43
2022-12-05T10:58:14.094Z,7.37
2022-12-05T11:00:37.150Z,7.10
2022-12-05T11:03:05.399Z,8.10
2022-12-05T11:05:33.008Z,7.63
2022-12-05T11:08:00.549Z,7.03
2022-12-05T11:10:31.421Z,8.23
2022-12-05T11:12:59.004Z,6.90
2022-12-05T11:15:26.540Z,6.80
2022-12-05T11:17:54.064Z,7.10
2022-12-05T11:20:21.647Z,8.23
2022-12-05T11:22:49.184Z,8.00
2022-12-05T11:25:28.801Z,8.17
2022-12-05T11:28:01.473Z,8.33
2022-12-05T11:30:27.402Z,7.73
2022-12-05T11:33:19.208Z,9.17
2022-12-05T11:35:46.735Z,9.00
2022-12-05T11:38:14.257Z,8.17
2022-12-05T11:40:53.569Z,11.68
2022-12-05T11:43:39.181Z,9.37
2022-12-05T11:46:15.887Z,9.60
2022-12-05T11:49:14.254Z,8.73
2022-12-05T11:52:18.890Z,8.70
2022-12-05T11:55:10.721Z,8.10
2022-12-05T11:57:25.538Z,10.85
2022-12-05T12:00:14.548Z,9.27
2022-12-05T12:03:12.293Z,9.43
2022-12-05T12:05:39.717Z,8.33
2022-12-05T12:08:25.415Z,8.40
2022-12-05T12:11:29.770Z,9.00
2022-12-05T12:14:02.983Z,9.20
2022-12-05T12:16:56.224Z,11.35
2022-12-05T12:19:36.128Z,10.40
2022-12-05T12:22:15.458Z,10.17
2022-12-05T12:24:58.934Z,8.70
2022-12-05T12:27:44.921Z,9.10
2022-12-05T12:30:18.245Z,10.23
2022-12-05T12:33:05.048Z,11.43
2022-12-05T12:35:33.675Z,10.10
2022-12-05T12:38:10.002Z,9.53
2022-12-05T12:40:56.276Z,9.63
2022-12-05T12:43:53.126Z,8.80
2022-12-05T12:46:31.425Z,8.77
2022-12-05T12:49:07.391Z,8.40
2022-12-05T12:51:34.916Z,8.67
2022-12-05T12:54:40.418Z,9.60
2022-12-05T12:56:58.479Z,8.87
2022-12-05T12:59:44.368Z,8.67
2022-12-05T13:02:20.922Z,8.53
2022-12-05T13:04:54.394Z,8.57
2022-12-05T13:07:33.513Z,7.93
2022-12-05T13:10:03.966Z,10.20
2022-12-05T13:12:32.308Z,8.13
2022-12-05T13:15:08.823Z,7.73
2022-12-05T13:17:37.125Z,7.00
2022-12-05T13:20:04.751Z,7.37
2022-12-05T13:22:33.088Z,7.23
2022-12-05T13:25:00.879Z,7.87
2022-12-05T13:27:28.158Z,7.80
2022-12-05T13:29:59.486Z,7.57
2022-12-05T13:32:33.559Z,7.73
2022-12-05T13:35:13.272Z,7.30
2022-12-05T13:38:04.704Z,8.13
2022-12-05T13:40:50.888Z,6.53
2022-12-05T13:43:21.189Z,7.47
2022-12-05T13:45:55.685Z,7.63
2022-12-05T13:48:23.134Z,7.50
2022-12-05T13:50:53.344Z,8.07
2022-12-05T13:53:35.908Z,8.98
2022-12-05T13:56:04.188Z,7.60
2022-12-05T13:58:34.942Z,6.77
2022-12-05T14:01:28.277Z,6.83
2022-12-05T14:03:55.739Z,7.13
2022-12-05T14:06:38.678Z,7.40
2022-12-05T14:09:18.192Z,6.80
2022-12-05T14:12:11.631Z,7.10
2022-12-05T14:14:57.659Z,6.40
2022-12-05T14:17:31.740Z,7.40
2022-12-05T14:20:29.955Z,6.97
2022-12-05T14:23:00.354Z,8.75
2022-12-05T14:25:30.815Z,6.83
2022-12-05T14:28:01.430Z,7.03
2022-12-05T14:30:35.645Z,7.17
2022-12-05T14:33:03.152Z,7.43
2022-12-05T14:35:42.702Z,9.73
2022-12-05T14:38:10.238Z,8.20
2022-12-05T14:40:37.775Z,10.45
2022-12-05T14:43:08.093Z,8.63
2022-12-05T14:45:51.492Z,7.87
2022-12-05T14:48:41.283Z,8.73
2022-12-05T14:51:26.742Z,9.20
2022-12-05T14:53:54.326Z,10.23
2022-12-05T14:56:21.851Z,12.05
2022-12-05T14:59:04.450Z,9.23
2022-12-05T15:01:41.222Z,10.97
2022-12-05T15:04:09.742Z,9.73
2022-12-05T15:06:43.203Z,10.83
2022-12-05T15:09:35.970Z,10.77
2022-12-05T15:11:38.323Z,9.17
2022-12-05T15:14:08.801Z,7.23
2022-12-05T15:16:37.153Z,7.57
2022-12-05T15:19:04.982Z,8.67
2022-12-05T15:21:44.569Z,8.67
2022-12-05T15:24:17.908Z,7.37
2022-12-05T15:26:49.169Z,9.75
2022-12-05T15:29:21.717Z,8.07
2022-12-05T15:31:54.763Z,8.73
2022-12-05T15:34:46.545Z,6.73
2022-12-05T15:37:22.641Z,8.50
2022-12-05T15:39:52.912Z,7.13
2022-12-05T15:42:23.606Z,6.37
2022-12-05T15:44:48.012Z,6.17
2022-12-05T15:47:21.721Z,8.45
2022-12-05T15:49:50.010Z,6.40
2022-12-05T15:52:26.413Z,6.40
2022-12-05T15:54:53.913Z,6.57
2022-12-05T15:57:22.216Z,10.33
2022-12-05T16:00:01.798Z,15.60
2022-12-05T16:02:40.771Z,9.47
2022-12-05T16:05:08.654Z,8.23
2022-12-05T16:07:36.250Z,8.03
2022-12-05T16:10:04.492Z,7.97
2022-12-05T16:12:32.064Z,7.70
2022-12-05T16:15:00.675Z,7.57
2022-12-05T16:17:27.926Z,8.97
2022-12-05T16:19:55.486Z,8.43
2022-12-05T16:22:23.003Z,8.27
2022-12-05T16:25:02.307Z,6.97
2022-12-05T16:27:30.639Z,6.00
2022-12-05T16:30:07.122Z,6.47
2022-12-05T16:32:34.648Z,7.17
2022-12-05T16:35:02.211Z,9.20
2022-12-05T16:37:29.796Z,9.70
2022-12-05T16:39:57.724Z,7.57
2022-12-05T16:42:28.110Z,10.73
2022-12-05T16:44:58.461Z,9.17
2022-12-05T16:47:25.616Z,8.97
2022-12-05T16:49:53.945Z,8.57
2022-12-05T16:52:21.525Z,7.33
2022-12-05T16:54:49.068Z,11.87
2022-12-05T16:57:16.590Z,75.43
2022-12-05T16:59:44.205Z,45.90
2022-12-05T17:02:14.820Z,31.77
2022-12-05T17:04:42.389Z,19.70
2022-12-05T17:07:11.032Z,16.10
2022-12-05T17:09:38.556Z,12.23
2022-12-05T17:12:18.751Z,10.60
2022-12-05T17:14:46.267Z,11.23
2022-12-05T17:17:14.581Z,11.37
2022-12-05T17:19:42.161Z,9.70
2022-12-05T17:22:09.706Z,8.63
2022-12-05T17:24:37.240Z,14.60
2022-12-05T17:27:04.805Z,11.80
2022-12-05T17:29:35.634Z,10.40
2022-12-05T17:32:00.693Z,11.00
2022-12-05T17:34:28.235Z,7.93
2022-12-05T17:36:55.760Z,7.03
2022-12-05T17:39:28.070Z,6.33
2022-12-05T17:41:51.635Z,5.77
2022-12-05T17:44:19.154Z,5.67
2022-12-05T17:46:46.738Z,11.70
2022-12-05T17:49:15.009Z,9.77
2022-12-05T17:52:05.416Z,6.93
2022-12-05T17:54:10.130Z,7.30
2022-12-05T17:56:37.692Z,6.90
2022-12-05T17:59:07.404Z,5.90
2022-12-05T18:01:32.879Z,8.93
2022-12-05T18:04:01.109Z,9.03
2022-12-05T18:06:28.632Z,5.90
2022-12-05T18:08:56.155Z,5.77
2022-12-05T18:11:25.073Z,5.87
2022-12-05T18:13:52.605Z,7.07
2022-12-05T18:16:20.944Z,6.13
2022-12-05T18:18:49.241Z,6.10
2022-12-05T18:21:16.823Z,5.60
2022-12-05T18:23:44.333Z,5.60
2022-12-05T18:26:11.917Z,5.30
2022-12-05T18:28:39.452Z,5.37
2022-12-05T18:31:11.768Z,5.93
2022-12-05T18:33:39.370Z,5.27
2022-12-05T18:36:09.633Z,6.90
2022-12-05T18:38:37.168Z,8.13
2022-12-05T18:41:04.769Z,5.00
2022-12-05T18:43:33.070Z,6.40
2022-12-05T18:46:00.670Z,6.00
2022-12-05T18:48:39.563Z,6.13
2022-12-05T18:50:56.462Z,5.07
2022-12-05T18:53:24.002Z,4.73
2022-12-05T18:56:13.579Z,6.53
2022-12-05T18:58:19.864Z,5.53
2022-12-05T19:00:47.441Z,6.40
2022-12-05T19:03:14.988Z,4.37
2022-12-05T19:05:42.514Z,4.50
2022-12-05T19:08:10.852Z,5.10
2022-12-05T19:10:39.086Z,5.20
2022-12-05T19:13:06.610Z,5.13
2022-12-05T19:15:34.903Z,5.70
2022-12-05T19:18:03.265Z,4.90
2022-12-05T19:20:30.771Z,5.60
2022-12-05T19:23:01.101Z,4.27
2022-12-05T19:25:26.580Z,3.97
2022-12-05T19:27:54.115Z,4.07
2022-12-05T19:30:21.648Z,3.80
2022-12-05T19:32:49.224Z,3.90
2022-12-05T19:35:16.747Z,3.30
2022-12-05T19:37:44.267Z,3.80
2022-12-05T19:40:12.644Z,3.33
2022-12-05T19:42:40.927Z,3.90
2022-12-05T19:45:12.250Z,4.33
2022-12-05T19:47:36.224Z,5.67
2022-12-05T19:50:03.718Z,5.33
2022-12-05T19:52:31.412Z,4.63
2022-12-05T19:54:59.591Z,4.70
2022-12-05T19:57:31.262Z,6.40
2022-12-05T19:59:55.740Z,6.30
2022-12-05T20:02:23.242Z,8.65
2022-12-05T20:04:50.740Z,5.73
2022-12-05T20:07:18.277Z,9.90
2022-12-05T20:09:46.136Z,7.00
2022-12-05T20:12:13.679Z,6.00
2022-12-05T20:14:41.975Z,6.37
2022-12-05T20:17:09.580Z,6.83
2022-12-05T20:19:37.053Z,7.13
2022-12-05T20:22:04.588Z,6.93
2022-12-05T20:24:32.168Z,7.80
2022-12-05T20:26:59.701Z,6.20
2022-12-05T20:29:27.227Z,5.53
2022-12-05T20:31:54.795Z,5.70
2022-12-05T20:34:22.333Z,6.10
2022-12-05T20:36:49.876Z,5.33
2022-12-05T20:39:18.204Z,4.90
2022-12-05T20:41:45.790Z,4.60
2022-12-05T20:44:13.271Z,4.93
2022-12-05T20:46:41.801Z,4.80
2022-12-05T20:49:09.287Z,4.50
2022-12-05T20:51:36.768Z,4.50
2022-12-05T20:54:05.399Z,4.60
2022-12-05T20:56:32.936Z,4.23
2022-12-05T20:59:01.204Z,4.57
2022-12-05T21:01:28.814Z,5.60
2022-12-05T21:03:56.334Z,5.00
2022-12-05T21:06:23.861Z,7.00
2022-12-05T21:08:52.197Z,6.33
2022-12-05T21:11:19.718Z,5.50
2022-12-05T21:13:47.234Z,5.20
2022-12-05T21:16:14.902Z,5.10
2022-12-05T21:18:43.111Z,7.70
2022-12-05T21:21:15.978Z,7.30
2022-12-05T21:23:44.300Z,6.50
2022-12-05T21:26:11.820Z,5.10
2022-12-05T21:28:40.114Z,4.97
2022-12-05T21:31:10.415Z,5.60
2022-12-05T21:33:37.932Z,5.73
2022-12-05T21:36:05.897Z,5.23
2022-12-05T21:38:34.043Z,6.55
2022-12-05T21:41:01.568Z,5.67
2022-12-05T21:43:29.860Z,5.17
2022-12-05T21:45:58.497Z,5.23
2022-12-05T21:48:25.974Z,4.60
2022-12-05T21:50:53.508Z,4.63
2022-12-05T21:53:21.085Z,4.67
2022-12-05T21:55:48.607Z,7.18
2022-12-05T21:58:16.120Z,6.55
2022-12-05T22:00:44.953Z,5.27
2022-12-05T22:03:12.522Z,5.17
2022-12-05T22:05:40.012Z,5.90
2022-12-05T22:08:07.606Z,6.03
2022-12-05T22:10:35.873Z,5.07
2022-12-05T22:13:04.175Z,7.30
2022-12-05T22:15:31.748Z,5.30
2022-12-05T22:17:59.262Z,5.10
2022-12-05T22:20:27.565Z,5.57
2022-12-05T22:22:55.160Z,4.57
2022-12-05T22:25:22.664Z,5.30
2022-12-05T22:27:50.178Z,5.27
2022-12-05T22:30:17.822Z,5.43
2022-12-05T22:32:45.354Z,6.60
2022-12-05T22:35:12.881Z,7.35
2022-12-05T22:37:42.091Z,6.90
2022-12-05T22:40:10.433Z,7.77
2022-12-05T22:42:37.967Z,6.77
2022-12-05T22:45:05.668Z,6.70
2022-12-05T22:47:33.194Z,6.10
2022-12-05T22:50:01.201Z,5.67
2022-12-05T22:52:28.302Z,5.47
2022-12-05T22:54:55.934Z,6.03
2022-12-05T22:57:24.124Z,5.73
2022-12-05T22:59:51.694Z,5.50
2022-12-05T23:02:19.210Z,5.83
2022-12-05T23:04:47.492Z,5.43
2022-12-05T23:07:15.846Z,5.53
2022-12-05T23:09:43.360Z,5.23
2022-12-05T23:12:10.884Z,5.83
2022-12-05T23:14:39.226Z,5.63
2022-12-05T23:17:06.761Z,6.60
2022-12-05T23:19:34.285Z,5.90
2022-12-05T23:22:01.849Z,5.43
2022-12-05T23:24:30.142Z,6.10
2022-12-05T23:26:57.669Z,5.67
2022-12-05T23:29:25.987Z,6.13
2022-12-05T23:31:53.555Z,5.40
2022-12-05T23:34:21.798Z,5.27
2022-12-05T23:36:49.614Z,5.27
2022-12-05T23:39:17.140Z,4.90
2022-12-05T23:41:44.674Z,5.37
2022-12-05T23:44:13.008Z,5.83
2022-12-05T23:46:40.593Z,5.03
2022-12-05T23:49:08.086Z,5.13
2022-12-05T23:51:35.661Z,6.40
2022-12-05T23:54:03.204Z,5.60
2022-12-05T23:56:31.473Z,5.23
2022-12-05T23:58:59.799Z,5.10
